sensor_id;sensor_type;location;lat;lon;timestamp;P1;durP1;ratioP1;P2;durP2;ratioP2
28166;SDS011;15455;53.376;-6.262;2023-08-01T00:02:11;6.75;;;1.50;;
28166;SDS011;15455;53.376;-6.262;2023-08-01T00:04:57;10.13;;;1.83;;
28166;SDS011;15455;53.376;-6.262;2023-08-01T00:07:42;15.85;;;1.95;;
28166;SDS011;15455;53.376;-6.262;2023-08-01T00:10:28;8.65;;;1.55;;
28166;SDS011;15455;53.376;-6.262;2023-08-01T00:13:13;9.57;;;1.85;;
28166;SDS011;15455;53.376;-6.262;2023-08-01T00:15:58;8.30;;;1.50;;
28166;SDS011;15455;53.376;-6.262;2023-08-01T00:18:51;15.07;;;1.85;;
28166;SDS011;15455;53.376;-6.262;2023-08-01T00:21:37;9.52;;;1.75;;
28166;SDS011;15455;53.376;-6.262;2023-08-01T00:24:22;11.32;;;1.67;;
28166;SDS011;15455;53.376;-6.262;2023-08-01T00:27:08;13.80;;;1.75;;
28166;SDS011;15455;53.376;-6.262;2023-08-01T00:29:55;15.23;;;2.38;;
28166;SDS011;15455;53.376;-6.262;2023-08-01T00:32:41;9.55;;;1.60;;
28166;SDS011;15455;53.376;-6.262;2023-08-01T00:35:27;7.25;;;1.40;;
28166;SDS011;15455;53.376;-6.262;2023-08-01T00:38:13;12.07;;;1.63;;
28166;SDS011;15455;53.376;-6.262;2023-08-01T00:40:58;7.22;;;1.83;;
28166;SDS011;15455;53.376;-6.262;2023-08-01T00:43:44;8.45;;;1.70;;
28166;SDS011;15455;53.376;-6.262;2023-08-01T00:46:32;8.48;;;2.22;;
28166;SDS011;15455;53.376;-6.262;2023-08-01T00:49:17;5.78;;;1.73;;
28166;SDS011;15455;53.376;-6.262;2023-08-01T00:52:03;7.85;;;1.52;;
28166;SDS011;15455;53.376;-6.262;2023-08-01T00:54:50;8.27;;;2.00;;
28166;SDS011;15455;53.376;-6.262;2023-08-01T00:57:36;13.15;;;1.77;;
28166;SDS011;15455;53.376;-6.262;2023-08-01T01:00:22;7.70;;;1.63;;
28166;SDS011;15455;53.376;-6.262;2023-08-01T01:03:08;10.18;;;2.03;;
28166;SDS011;15455;53.376;-6.262;2023-08-01T01:09:01;14.18;;;1.75;;
28166;SDS011;15455;53.376;-6.262;2023-08-01T01:11:50;7.18;;;1.60;;
28166;SDS011;15455;53.376;-6.262;2023-08-01T01:14:35;9.00;;;1.20;;
28166;SDS011;15455;53.376;-6.262;2023-08-01T01:17:21;10.35;;;1.88;;
28166;SDS011;15455;53.376;-6.262;2023-08-01T01:20:06;10.80;;;2.17;;
28166;SDS011;15455;53.376;-6.262;2023-08-01T01:22:52;11.60;;;2.00;;
28166;SDS011;15455;53.376;-6.262;2023-08-01T01:25:39;9.65;;;2.15;;
28166;SDS011;15455;53.376;-6.262;2023-08-01T01:28:26;8.90;;;1.52;;
28166;SDS011;15455;53.376;-6.262;2023-08-01T01:31:13;11.90;;;2.00;;
28166;SDS011;15455;53.376;-6.262;2023-08-01T01:34:00;9.05;;;1.40;;
28166;SDS011;15455;53.376;-6.262;2023-08-01T01:36:47;9.25;;;2.15;;
28166;SDS011;15455;53.376;-6.262;2023-08-01T01:39:32;8.82;;;1.80;;
28166;SDS011;15455;53.376;-6.262;2023-08-01T01:42:18;4.70;;;1.52;;
28166;SDS011;15455;53.376;-6.262;2023-08-01T01:45:04;7.65;;;1.40;;
28166;SDS011;15455;53.376;-6.262;2023-08-01T01:47:50;12.25;;;1.50;;
28166;SDS011;15455;53.376;-6.262;2023-08-01T01:50:35;13.20;;;2.13;;
28166;SDS011;15455;53.376;-6.262;2023-08-01T01:53:21;9.20;;;2.45;;
28166;SDS011;15455;53.376;-6.262;2023-08-01T01:56:07;9.50;;;1.70;;
28166;SDS011;15455;53.376;-6.262;2023-08-01T01:58:53;10.93;;;1.90;;
28166;SDS011;15455;53.376;-6.262;2023-08-01T02:01:38;4.70;;;1.65;;
28166;SDS011;15455;53.376;-6.262;2023-08-01T02:04:24;15.35;;;1.77;;
28166;SDS011;15455;53.376;-6.262;2023-08-01T02:07:09;9.88;;;1.33;;
28166;SDS011;15455;53.376;-6.262;2023-08-01T02:09:55;8.93;;;1.40;;
28166;SDS011;15455;53.376;-6.262;2023-08-01T02:12:40;14.82;;;1.92;;
28166;SDS011;15455;53.376;-6.262;2023-08-01T02:15:26;7.68;;;1.35;;
28166;SDS011;15455;53.376;-6.262;2023-08-01T02:18:11;6.85;;;1.35;;
28166;SDS011;15455;53.376;-6.262;2023-08-01T02:20:57;5.70;;;1.98;;
28166;SDS011;15455;53.376;-6.262;2023-08-01T02:23:42;3.78;;;1.38;;
28166;SDS011;15455;53.376;-6.262;2023-08-01T02:26:28;6.88;;;1.48;;
28166;SDS011;15455;53.376;-6.262;2023-08-01T02:29:14;5.28;;;1.60;;
28166;SDS011;15455;53.376;-6.262;2023-08-01T02:32:00;3.80;;;1.17;;
28166;SDS011;15455;53.376;-6.262;2023-08-01T02:34:45;5.82;;;1.40;;
28166;SDS011;15455;53.376;-6.262;2023-08-01T02:37:31;6.75;;;1.27;;
28166;SDS011;15455;53.376;-6.262;2023-08-01T02:40:16;8.35;;;1.73;;
28166;SDS011;15455;53.376;-6.262;2023-08-01T02:43:02;9.57;;;1.70;;
28166;SDS011;15455;53.376;-6.262;2023-08-01T02:45:47;5.20;;;1.17;;
28166;SDS011;15455;53.376;-6.262;2023-08-01T02:48:33;5.38;;;1.30;;
28166;SDS011;15455;53.376;-6.262;2023-08-01T02:51:20;10.70;;;1.60;;
28166;SDS011;15455;53.376;-6.262;2023-08-01T02:54:06;6.35;;;1.60;;
28166;SDS011;15455;53.376;-6.262;2023-08-01T02:56:51;7.00;;;1.52;;
28166;SDS011;15455;53.376;-6.262;2023-08-01T02:59:37;8.45;;;1.73;;
28166;SDS011;15455;53.376;-6.262;2023-08-01T03:02:22;5.20;;;0.90;;
28166;SDS011;15455;53.376;-6.262;2023-08-01T03:05:08;14.57;;;2.50;;
28166;SDS011;15455;53.376;-6.262;2023-08-01T03:07:54;1.80;;;1.00;;
28166;SDS011;15455;53.376;-6.262;2023-08-01T03:10:39;11.05;;;1.63;;
28166;SDS011;15455;53.376;-6.262;2023-08-01T03:13:25;6.78;;;1.65;;
28166;SDS011;15455;53.376;-6.262;2023-08-01T03:16:11;6.78;;;2.78;;
28166;SDS011;15455;53.376;-6.262;2023-08-01T03:18:56;4.80;;;1.23;;
28166;SDS011;15455;53.376;-6.262;2023-08-01T03:21:42;7.72;;;1.85;;
28166;SDS011;15455;53.376;-6.262;2023-08-01T03:24:28;5.40;;;1.20;;
28166;SDS011;15455;53.376;-6.262;2023-08-01T03:27:13;5.95;;;1.05;;
28166;SDS011;15455;53.376;-6.262;2023-08-01T03:29:59;9.05;;;1.20;;
28166;SDS011;15455;53.376;-6.262;2023-08-01T03:32:45;6.22;;;0.90;;
28166;SDS011;15455;53.376;-6.262;2023-08-01T03:35:32;4.10;;;1.45;;
28166;SDS011;15455;53.376;-6.262;2023-08-01T03:38:17;8.52;;;1.38;;
28166;SDS011;15455;53.376;-6.262;2023-08-01T03:41:03;9.98;;;1.58;;
28166;SDS011;15455;53.376;-6.262;2023-08-01T03:43:49;4.82;;;1.20;;
28166;SDS011;15455;53.376;-6.262;2023-08-01T03:46:34;11.43;;;1.70;;
28166;SDS011;15455;53.376;-6.262;2023-08-01T03:49:20;6.55;;;1.38;;
28166;SDS011;15455;53.376;-6.262;2023-08-01T03:52:05;5.97;;;1.45;;
28166;SDS011;15455;53.376;-6.262;2023-08-01T03:54:54;7.47;;;1.40;;
28166;SDS011;15455;53.376;-6.262;2023-08-01T03:57:41;7.43;;;1.25;;
28166;SDS011;15455;53.376;-6.262;2023-08-01T04:00:28;14.40;;;1.15;;
28166;SDS011;15455;53.376;-6.262;2023-08-01T04:03:17;6.40;;;1.20;;
28166;SDS011;15455;53.376;-6.262;2023-08-01T04:06:03;7.40;;;1.60;;
28166;SDS011;15455;53.376;-6.262;2023-08-01T04:08:48;5.03;;;1.55;;
28166;SDS011;15455;53.376;-6.262;2023-08-01T04:11:34;4.68;;;1.35;;
28166;SDS011;15455;53.376;-6.262;2023-08-01T04:14:19;7.20;;;1.40;;
28166;SDS011;15455;53.376;-6.262;2023-08-01T04:17:05;6.28;;;1.05;;
28166;SDS011;15455;53.376;-6.262;2023-08-01T04:19:50;13.27;;;1.63;;
28166;SDS011;15455;53.376;-6.262;2023-08-01T04:22:36;5.18;;;1.15;;
28166;SDS011;15455;53.376;-6.262;2023-08-01T04:25:22;4.50;;;1.42;;
28166;SDS011;15455;53.376;-6.262;2023-08-01T04:28:10;8.93;;;1.85;;
28166;SDS011;15455;53.376;-6.262;2023-08-01T04:30:56;5.00;;;1.10;;
28166;SDS011;15455;53.376;-6.262;2023-08-01T04:33:42;8.80;;;1.60;;
28166;SDS011;15455;53.376;-6.262;2023-08-01T04:36:28;4.22;;;1.05;;
28166;SDS011;15455;53.376;-6.262;2023-08-01T04:39:15;7.78;;;1.27;;
28166;SDS011;15455;53.376;-6.262;2023-08-01T04:42:00;10.65;;;1.42;;
28166;SDS011;15455;53.376;-6.262;2023-08-01T04:44:46;9.82;;;1.02;;
28166;SDS011;15455;53.376;-6.262;2023-08-01T04:47:32;12.20;;;1.42;;
28166;SDS011;15455;53.376;-6.262;2023-08-01T04:50:18;9.20;;;2.08;;
28166;SDS011;15455;53.376;-6.262;2023-08-01T04:53:03;11.27;;;1.30;;
28166;SDS011;15455;53.376;-6.262;2023-08-01T04:55:49;3.92;;;1.05;;
28166;SDS011;15455;53.376;-6.262;2023-08-01T04:58:35;3.53;;;1.02;;
28166;SDS011;15455;53.376;-6.262;2023-08-01T05:01:20;5.88;;;1.30;;
28166;SDS011;15455;53.376;-6.262;2023-08-01T05:04:07;6.47;;;1.17;;
28166;SDS011;15455;53.376;-6.262;2023-08-01T05:06:52;7.07;;;1.42;;
28166;SDS011;15455;53.376;-6.262;2023-08-01T05:09:37;8.88;;;1.50;;
28166;SDS011;15455;53.376;-6.262;2023-08-01T05:12:23;3.42;;;1.30;;
28166;SDS011;15455;53.376;-6.262;2023-08-01T05:15:08;8.25;;;1.30;;
28166;SDS011;15455;53.376;-6.262;2023-08-01T05:17:54;3.42;;;1.27;;
28166;SDS011;15455;53.376;-6.262;2023-08-01T05:20:41;4.78;;;1.17;;
28166;SDS011;15455;53.376;-6.262;2023-08-01T05:23:26;1.80;;;0.68;;
28166;SDS011;15455;53.376;-6.262;2023-08-01T05:26:12;4.35;;;1.05;;
28166;SDS011;15455;53.376;-6.262;2023-08-01T05:28:57;5.35;;;1.02;;
28166;SDS011;15455;53.376;-6.262;2023-08-01T05:31:43;3.72;;;1.27;;
28166;SDS011;15455;53.376;-6.262;2023-08-01T05:34:28;5.00;;;1.65;;
28166;SDS011;15455;53.376;-6.262;2023-08-01T05:37:14;7.35;;;1.38;;
28166;SDS011;15455;53.376;-6.262;2023-08-01T05:39:59;9.20;;;1.25;;
28166;SDS011;15455;53.376;-6.262;2023-08-01T05:42:45;6.18;;;1.23;;
28166;SDS011;15455;53.376;-6.262;2023-08-01T05:45:30;6.78;;;1.40;;
28166;SDS011;15455;53.376;-6.262;2023-08-01T05:48:15;5.40;;;1.40;;
28166;SDS011;15455;53.376;-6.262;2023-08-01T05:51:01;6.32;;;1.08;;
28166;SDS011;15455;53.376;-6.262;2023-08-01T05:53:46;4.68;;;1.02;;
28166;SDS011;15455;53.376;-6.262;2023-08-01T05:56:32;7.93;;;1.17;;
28166;SDS011;15455;53.376;-6.262;2023-08-01T05:59:17;8.48;;;1.40;;
28166;SDS011;15455;53.376;-6.262;2023-08-01T06:02:03;3.00;;;1.13;;
28166;SDS011;15455;53.376;-6.262;2023-08-01T06:04:49;9.40;;;1.48;;
28166;SDS011;15455;53.376;-6.262;2023-08-01T06:07:35;5.15;;;1.10;;
28166;SDS011;15455;53.376;-6.262;2023-08-01T06:10:20;3.10;;;1.38;;
28166;SDS011;15455;53.376;-6.262;2023-08-01T06:13:07;9.52;;;1.48;;
28166;SDS011;15455;53.376;-6.262;2023-08-01T06:15:53;5.32;;;1.50;;
28166;SDS011;15455;53.376;-6.262;2023-08-01T06:18:39;9.05;;;1.40;;
28166;SDS011;15455;53.376;-6.262;2023-08-01T06:21:25;4.00;;;1.13;;
28166;SDS011;15455;53.376;-6.262;2023-08-01T06:24:10;2.97;;;0.93;;
28166;SDS011;15455;53.376;-6.262;2023-08-01T06:26:56;4.30;;;1.02;;
28166;SDS011;15455;53.376;-6.262;2023-08-01T06:29:41;7.78;;;1.05;;
28166;SDS011;15455;53.376;-6.262;2023-08-01T06:32:27;8.90;;;1.52;;
28166;SDS011;15455;53.376;-6.262;2023-08-01T06:35:12;5.55;;;1.42;;
28166;SDS011;15455;53.376;-6.262;2023-08-01T06:37:58;5.78;;;1.27;;
28166;SDS011;15455;53.376;-6.262;2023-08-01T06:40:43;8.10;;;1.45;;
28166;SDS011;15455;53.376;-6.262;2023-08-01T06:43:29;4.82;;;0.77;;
28166;SDS011;15455;53.376;-6.262;2023-08-01T06:46:14;4.32;;;1.05;;
28166;SDS011;15455;53.376;-6.262;2023-08-01T06:49:00;8.70;;;1.60;;
28166;SDS011;15455;53.376;-6.262;2023-08-01T06:51:46;9.27;;;1.77;;
28166;SDS011;15455;53.376;-6.262;2023-08-01T06:54:32;4.57;;;0.98;;
28166;SDS011;15455;53.376;-6.262;2023-08-01T06:57:17;6.97;;;1.60;;
28166;SDS011;15455;53.376;-6.262;2023-08-01T07:00:03;7.68;;;1.40;;
28166;SDS011;15455;53.376;-6.262;2023-08-01T07:02:49;5.90;;;1.15;;
28166;SDS011;15455;53.376;-6.262;2023-08-01T07:05:35;5.18;;;1.25;;
28166;SDS011;15455;53.376;-6.262;2023-08-01T07:08:20;3.33;;;1.27;;
28166;SDS011;15455;53.376;-6.262;2023-08-01T07:11:06;4.70;;;1.13;;
28166;SDS011;15455;53.376;-6.262;2023-08-01T07:13:52;9.98;;;1.35;;
28166;SDS011;15455;53.376;-6.262;2023-08-01T07:16:37;8.63;;;2.15;;
28166;SDS011;15455;53.376;-6.262;2023-08-01T07:19:23;8.18;;;1.27;;
28166;SDS011;15455;53.376;-6.262;2023-08-01T07:22:08;6.18;;;1.70;;
28166;SDS011;15455;53.376;-6.262;2023-08-01T07:24:54;4.13;;;1.00;;
28166;SDS011;15455;53.376;-6.262;2023-08-01T07:27:40;3.95;;;1.52;;
28166;SDS011;15455;53.376;-6.262;2023-08-01T07:30:29;10.23;;;1.73;;
28166;SDS011;15455;53.376;-6.262;2023-08-01T07:33:14;7.05;;;1.00;;
28166;SDS011;15455;53.376;-6.262;2023-08-01T07:36:00;6.80;;;0.98;;
28166;SDS011;15455;53.376;-6.262;2023-08-01T07:38:45;2.50;;;1.02;;
28166;SDS011;15455;53.376;-6.262;2023-08-01T07:41:31;7.88;;;1.38;;
28166;SDS011;15455;53.376;-6.262;2023-08-01T07:44:18;6.00;;;2.03;;
28166;SDS011;15455;53.376;-6.262;2023-08-01T07:47:03;4.90;;;1.08;;
28166;SDS011;15455;53.376;-6.262;2023-08-01T07:49:49;4.32;;;0.95;;
28166;SDS011;15455;53.376;-6.262;2023-08-01T07:52:35;7.80;;;1.73;;
28166;SDS011;15455;53.376;-6.262;2023-08-01T07:55:21;5.78;;;1.25;;
28166;SDS011;15455;53.376;-6.262;2023-08-01T07:58:07;4.13;;;0.70;;
28166;SDS011;15455;53.376;-6.262;2023-08-01T08:00:52;2.30;;;0.80;;
28166;SDS011;15455;53.376;-6.262;2023-08-01T08:03:38;4.20;;;0.70;;
28166;SDS011;15455;53.376;-6.262;2023-08-01T08:06:24;5.53;;;0.80;;
28166;SDS011;15455;53.376;-6.262;2023-08-01T08:09:09;3.55;;;0.60;;
28166;SDS011;15455;53.376;-6.262;2023-08-01T08:11:54;8.60;;;1.08;;
28166;SDS011;15455;53.376;-6.262;2023-08-01T08:14:42;3.65;;;0.77;;
28166;SDS011;15455;53.376;-6.262;2023-08-01T08:17:27;4.40;;;1.02;;
28166;SDS011;15455;53.376;-6.262;2023-08-01T08:20:13;4.47;;;0.98;;
28166;SDS011;15455;53.376;-6.262;2023-08-01T08:22:58;3.58;;;0.57;;
28166;SDS011;15455;53.376;-6.262;2023-08-01T08:25:44;3.63;;;0.93;;
28166;SDS011;15455;53.376;-6.262;2023-08-01T08:28:31;3.40;;;0.73;;
28166;SDS011;15455;53.376;-6.262;2023-08-01T08:31:18;2.10;;;0.40;;
28166;SDS011;15455;53.376;-6.262;2023-08-01T08:34:04;5.72;;;0.85;;
28166;SDS011;15455;53.376;-6.262;2023-08-01T08:36:49;5.50;;;0.50;;
28166;SDS011;15455;53.376;-6.262;2023-08-01T08:39:35;6.10;;;0.70;;
28166;SDS011;15455;53.376;-6.262;2023-08-01T08:42:21;4.78;;;0.80;;
28166;SDS011;15455;53.376;-6.262;2023-08-01T08:45:06;4.43;;;0.70;;
28166;SDS011;15455;53.376;-6.262;2023-08-01T08:47:55;6.72;;;1.00;;
28166;SDS011;15455;53.376;-6.262;2023-08-01T08:50:46;2.47;;;0.82;;
28166;SDS011;15455;53.376;-6.262;2023-08-01T08:53:32;5.88;;;1.27;;
28166;SDS011;15455;53.376;-6.262;2023-08-01T08:56:18;3.83;;;0.50;;
28166;SDS011;15455;53.376;-6.262;2023-08-01T08:59:04;7.25;;;1.10;;
28166;SDS011;15455;53.376;-6.262;2023-08-01T09:01:50;4.75;;;1.08;;
28166;SDS011;15455;53.376;-6.262;2023-08-01T09:04:35;1.83;;;0.30;;
28166;SDS011;15455;53.376;-6.262;2023-08-01T09:07:22;3.28;;;0.65;;
28166;SDS011;15455;53.376;-6.262;2023-08-01T09:10:09;2.17;;;0.65;;
28166;SDS011;15455;53.376;-6.262;2023-08-01T09:12:55;4.88;;;0.57;;
28166;SDS011;15455;53.376;-6.262;2023-08-01T09:15:41;3.25;;;0.43;;
28166;SDS011;15455;53.376;-6.262;2023-08-01T09:18:30;5.78;;;0.50;;
28166;SDS011;15455;53.376;-6.262;2023-08-01T09:21:19;0.85;;;0.40;;
28166;SDS011;15455;53.376;-6.262;2023-08-01T09:24:15;2.10;;;0.60;;
28166;SDS011;15455;53.376;-6.262;2023-08-01T09:27:03;3.40;;;0.57;;
28166;SDS011;15455;53.376;-6.262;2023-08-01T09:29:53;5.22;;;0.60;;
28166;SDS011;15455;53.376;-6.262;2023-08-01T09:32:55;2.25;;;0.40;;
28166;SDS011;15455;53.376;-6.262;2023-08-01T09:38:33;3.83;;;0.82;;
28166;SDS011;15455;53.376;-6.262;2023-08-01T09:41:20;2.38;;;0.45;;
28166;SDS011;15455;53.376;-6.262;2023-08-01T09:44:05;1.42;;;0.30;;
28166;SDS011;15455;53.376;-6.262;2023-08-01T09:47:09;3.80;;;0.57;;
28166;SDS011;15455;53.376;-6.262;2023-08-01T09:49:55;1.75;;;0.57;;
28166;SDS011;15455;53.376;-6.262;2023-08-01T09:52:41;0.77;;;0.40;;
28166;SDS011;15455;53.376;-6.262;2023-08-01T09:55:31;4.82;;;0.43;;
28166;SDS011;15455;53.376;-6.262;2023-08-01T09:58:18;2.22;;;0.35;;
28166;SDS011;15455;53.376;-6.262;2023-08-01T10:01:07;1.75;;;0.22;;
28166;SDS011;15455;53.376;-6.262;2023-08-01T10:03:53;1.35;;;0.35;;
28166;SDS011;15455;53.376;-6.262;2023-08-01T10:06:38;1.88;;;0.40;;
28166;SDS011;15455;53.376;-6.262;2023-08-01T10:09:31;2.47;;;0.40;;
28166;SDS011;15455;53.376;-6.262;2023-08-01T10:12:17;0.52;;;0.35;;
28166;SDS011;15455;53.376;-6.262;2023-08-01T10:15:03;2.97;;;0.30;;
28166;SDS011;15455;53.376;-6.262;2023-08-01T10:17:50;2.63;;;0.50;;
28166;SDS011;15455;53.376;-6.262;2023-08-01T10:20:36;0.95;;;0.20;;
28166;SDS011;15455;53.376;-6.262;2023-08-01T10:23:23;3.65;;;0.80;;
28166;SDS011;15455;53.376;-6.262;2023-08-01T10:26:10;2.22;;;0.30;;
28166;SDS011;15455;53.376;-6.262;2023-08-01T10:28:57;1.85;;;0.40;;
28166;SDS011;15455;53.376;-6.262;2023-08-01T10:31:51;0.90;;;0.30;;
28166;SDS011;15455;53.376;-6.262;2023-08-01T10:34:38;1.48;;;0.50;;
28166;SDS011;15455;53.376;-6.262;2023-08-01T10:37:24;0.88;;;0.38;;
28166;SDS011;15455;53.376;-6.262;2023-08-01T10:40:09;2.60;;;0.30;;
28166;SDS011;15455;53.376;-6.262;2023-08-01T10:42:59;2.20;;;0.40;;
28166;SDS011;15455;53.376;-6.262;2023-08-01T10:45:45;0.98;;;0.30;;
28166;SDS011;15455;53.376;-6.262;2023-08-01T10:48:30;0.38;;;0.13;;
28166;SDS011;15455;53.376;-6.262;2023-08-01T10:51:16;1.58;;;0.47;;
28166;SDS011;15455;53.376;-6.262;2023-08-01T10:54:01;1.15;;;0.30;;
28166;SDS011;15455;53.376;-6.262;2023-08-01T10:56:48;0.80;;;0.38;;
28166;SDS011;15455;53.376;-6.262;2023-08-01T10:59:35;0.40;;;0.20;;
28166;SDS011;15455;53.376;-6.262;2023-08-01T11:02:25;0.70;;;0.30;;
28166;SDS011;15455;53.376;-6.262;2023-08-01T11:05:12;2.83;;;0.93;;
28166;SDS011;15455;53.376;-6.262;2023-08-01T11:07:58;0.95;;;0.40;;
28166;SDS011;15455;53.376;-6.262;2023-08-01T11:10:48;1.85;;;0.30;;
28166;SDS011;15455;53.376;-6.262;2023-08-01T11:13:34;0.68;;;0.25;;
28166;SDS011;15455;53.376;-6.262;2023-08-01T11:16:21;2.83;;;0.60;;
28166;SDS011;15455;53.376;-6.262;2023-08-01T11:19:16;0.65;;;0.30;;
28166;SDS011;15455;53.376;-6.262;2023-08-01T11:22:09;1.42;;;0.30;;
28166;SDS011;15455;53.376;-6.262;2023-08-01T11:24:55;4.75;;;0.57;;
28166;SDS011;15455;53.376;-6.262;2023-08-01T11:27:40;0.90;;;0.73;;
28166;SDS011;15455;53.376;-6.262;2023-08-01T11:30:30;1.13;;;0.32;;
28166;SDS011;15455;53.376;-6.262;2023-08-01T11:33:19;1.88;;;0.40;;
28166;SDS011;15455;53.376;-6.262;2023-08-01T11:36:06;3.35;;;0.73;;
28166;SDS011;15455;53.376;-6.262;2023-08-01T11:38:53;0.85;;;0.30;;
28166;SDS011;15455;53.376;-6.262;2023-08-01T11:41:41;0.55;;;0.13;;
28166;SDS011;15455;53.376;-6.262;2023-08-01T11:44:27;0.28;;;0.28;;
28166;SDS011;15455;53.376;-6.262;2023-08-01T11:47:13;1.98;;;0.50;;
28166;SDS011;15455;53.376;-6.262;2023-08-01T11:49:59;1.08;;;0.20;;
28166;SDS011;15455;53.376;-6.262;2023-08-01T11:52:46;2.30;;;0.40;;
28166;SDS011;15455;53.376;-6.262;2023-08-01T11:55:32;1.05;;;0.15;;
28166;SDS011;15455;53.376;-6.262;2023-08-01T11:58:31;1.02;;;0.55;;
28166;SDS011;15455;53.376;-6.262;2023-08-01T12:01:18;0.57;;;0.20;;
28166;SDS011;15455;53.376;-6.262;2023-08-01T12:04:03;0.57;;;0.30;;
28166;SDS011;15455;53.376;-6.262;2023-08-01T12:06:50;1.10;;;0.22;;
28166;SDS011;15455;53.376;-6.262;2023-08-01T12:09:35;3.05;;;0.60;;
28166;SDS011;15455;53.376;-6.262;2023-08-01T12:12:21;0.17;;;0.10;;
28166;SDS011;15455;53.376;-6.262;2023-08-01T12:15:07;0.47;;;0.25;;
28166;SDS011;15455;53.376;-6.262;2023-08-01T12:17:52;0.82;;;0.10;;
28166;SDS011;15455;53.376;-6.262;2023-08-01T12:20:38;1.30;;;0.25;;
28166;SDS011;15455;53.376;-6.262;2023-08-01T12:23:23;1.48;;;0.20;;
28166;SDS011;15455;53.376;-6.262;2023-08-01T12:26:09;0.10;;;0.10;;
28166;SDS011;15455;53.376;-6.262;2023-08-01T12:28:54;2.10;;;0.30;;
28166;SDS011;15455;53.376;-6.262;2023-08-01T12:31:40;0.70;;;0.15;;
28166;SDS011;15455;53.376;-6.262;2023-08-01T12:34:26;2.35;;;0.40;;
28166;SDS011;15455;53.376;-6.262;2023-08-01T12:37:12;0.52;;;0.35;;
28166;SDS011;15455;53.376;-6.262;2023-08-01T12:39:57;1.15;;;0.40;;
28166;SDS011;15455;53.376;-6.262;2023-08-01T12:42:43;0.68;;;0.30;;
28166;SDS011;15455;53.376;-6.262;2023-08-01T12:45:28;2.05;;;0.30;;
28166;SDS011;15455;53.376;-6.262;2023-08-01T12:48:13;1.80;;;0.43;;
28166;SDS011;15455;53.376;-6.262;2023-08-01T12:50:59;1.25;;;0.35;;
28166;SDS011;15455;53.376;-6.262;2023-08-01T12:53:44;0.85;;;0.40;;
28166;SDS011;15455;53.376;-6.262;2023-08-01T12:56:32;1.98;;;0.20;;
28166;SDS011;15455;53.376;-6.262;2023-08-01T12:59:17;0.45;;;0.20;;
28166;SDS011;15455;53.376;-6.262;2023-08-01T13:02:02;2.22;;;0.28;;
28166;SDS011;15455;53.376;-6.262;2023-08-01T13:04:53;2.50;;;0.22;;
28166;SDS011;15455;53.376;-6.262;2023-08-01T13:07:38;1.55;;;0.20;;
28166;SDS011;15455;53.376;-6.262;2023-08-01T13:10:24;3.08;;;0.57;;
28166;SDS011;15455;53.376;-6.262;2023-08-01T13:13:10;0.25;;;0.20;;
28166;SDS011;15455;53.376;-6.262;2023-08-01T13:15:56;1.40;;;0.35;;
28166;SDS011;15455;53.376;-6.262;2023-08-01T13:18:42;0.55;;;0.20;;
28166;SDS011;15455;53.376;-6.262;2023-08-01T13:21:33;0.50;;;0.20;;
28166;SDS011;15455;53.376;-6.262;2023-08-01T13:24:22;0.28;;;0.22;;
28166;SDS011;15455;53.376;-6.262;2023-08-01T13:27:07;0.28;;;0.08;;
28166;SDS011;15455;53.376;-6.262;2023-08-01T13:29:54;4.95;;;0.57;;
28166;SDS011;15455;53.376;-6.262;2023-08-01T13:32:40;1.35;;;0.30;;
28166;SDS011;15455;53.376;-6.262;2023-08-01T13:35:27;0.38;;;0.20;;
28166;SDS011;15455;53.376;-6.262;2023-08-01T13:38:13;0.20;;;0.20;;
28166;SDS011;15455;53.376;-6.262;2023-08-01T13:40:59;2.60;;;0.30;;
28166;SDS011;15455;53.376;-6.262;2023-08-01T13:43:46;0.20;;;0.20;;
28166;SDS011;15455;53.376;-6.262;2023-08-01T13:46:32;0.32;;;0.10;;
28166;SDS011;15455;53.376;-6.262;2023-08-01T13:49:17;2.13;;;0.43;;
28166;SDS011;15455;53.376;-6.262;2023-08-01T13:52:03;1.15;;;0.30;;
28166;SDS011;15455;53.376;-6.262;2023-08-01T13:54:49;2.78;;;0.13;;
28166;SDS011;15455;53.376;-6.262;2023-08-01T13:57:34;0.70;;;0.20;;
28166;SDS011;15455;53.376;-6.262;2023-08-01T14:00:20;0.73;;;0.20;;
28166;SDS011;15455;53.376;-6.262;2023-08-01T14:03:05;0.35;;;0.20;;
28166;SDS011;15455;53.376;-6.262;2023-08-01T14:05:51;2.65;;;0.40;;
28166;SDS011;15455;53.376;-6.262;2023-08-01T14:08:37;1.08;;;0.30;;
28166;SDS011;15455;53.376;-6.262;2023-08-01T14:11:23;0.40;;;0.10;;
28166;SDS011;15455;53.376;-6.262;2023-08-01T14:14:09;0.50;;;0.15;;
28166;SDS011;15455;53.376;-6.262;2023-08-01T14:16:54;0.10;;;0.10;;
28166;SDS011;15455;53.376;-6.262;2023-08-01T14:19:40;0.60;;;0.10;;
28166;SDS011;15455;53.376;-6.262;2023-08-01T14:22:25;0.50;;;0.28;;
28166;SDS011;15455;53.376;-6.262;2023-08-01T14:25:11;1.73;;;0.30;;
28166;SDS011;15455;53.376;-6.262;2023-08-01T14:27:56;0.20;;;0.10;;
28166;SDS011;15455;53.376;-6.262;2023-08-01T14:30:42;1.67;;;0.40;;
28166;SDS011;15455;53.376;-6.262;2023-08-01T14:33:27;0.45;;;0.20;;
28166;SDS011;15455;53.376;-6.262;2023-08-01T14:36:13;3.50;;;0.20;;
28166;SDS011;15455;53.376;-6.262;2023-08-01T14:38:59;0.47;;;0.30;;
28166;SDS011;15455;53.376;-6.262;2023-08-01T14:42:00;0.20;;;0.20;;
28166;SDS011;15455;53.376;-6.262;2023-08-01T14:44:52;0.25;;;0.20;;
28166;SDS011;15455;53.376;-6.262;2023-08-01T14:47:39;0.68;;;0.10;;
28166;SDS011;15455;53.376;-6.262;2023-08-01T14:50:26;0.20;;;0.20;;
28166;SDS011;15455;53.376;-6.262;2023-08-01T14:53:12;0.20;;;0.10;;
28166;SDS011;15455;53.376;-6.262;2023-08-01T14:55:57;0.25;;;0.17;;
28166;SDS011;15455;53.376;-6.262;2023-08-01T14:58:48;4.47;;;0.30;;
28166;SDS011;15455;53.376;-6.262;2023-08-01T15:01:33;2.50;;;0.22;;
28166;SDS011;15455;53.376;-6.262;2023-08-01T15:04:19;1.88;;;0.10;;
28166;SDS011;15455;53.376;-6.262;2023-08-01T15:07:05;0.80;;;0.10;;
28166;SDS011;15455;53.376;-6.262;2023-08-01T15:09:52;0.00;;;0.00;;
28166;SDS011;15455;53.376;-6.262;2023-08-01T15:12:37;0.32;;;0.13;;
28166;SDS011;15455;53.376;-6.262;2023-08-01T15:15:23;0.45;;;0.10;;
28166;SDS011;15455;53.376;-6.262;2023-08-01T15:18:08;1.00;;;0.17;;
28166;SDS011;15455;53.376;-6.262;2023-08-01T15:20:54;0.25;;;0.13;;
28166;SDS011;15455;53.376;-6.262;2023-08-01T15:23:40;0.47;;;0.20;;
28166;SDS011;15455;53.376;-6.262;2023-08-01T15:26:26;1.08;;;0.20;;
28166;SDS011;15455;53.376;-6.262;2023-08-01T15:29:11;0.17;;;0.05;;
28166;SDS011;15455;53.376;-6.262;2023-08-01T15:31:57;0.93;;;0.20;;
28166;SDS011;15455;53.376;-6.262;2023-08-01T15:34:43;1.25;;;0.10;;
28166;SDS011;15455;53.376;-6.262;2023-08-01T15:37:28;0.43;;;0.13;;
28166;SDS011;15455;53.376;-6.262;2023-08-01T15:40:14;0.22;;;0.10;;
28166;SDS011;15455;53.376;-6.262;2023-08-01T15:42:59;0.20;;;0.15;;
28166;SDS011;15455;53.376;-6.262;2023-08-01T15:45:45;0.93;;;0.10;;
28166;SDS011;15455;53.376;-6.262;2023-08-01T15:48:33;1.20;;;0.30;;
28166;SDS011;15455;53.376;-6.262;2023-08-01T15:51:19;0.80;;;0.25;;
28166;SDS011;15455;53.376;-6.262;2023-08-01T15:54:05;0.95;;;0.25;;
28166;SDS011;15455;53.376;-6.262;2023-08-01T15:56:50;0.32;;;0.10;;
28166;SDS011;15455;53.376;-6.262;2023-08-01T15:59:38;0.03;;;0.03;;
28166;SDS011;15455;53.376;-6.262;2023-08-01T16:02:23;0.22;;;0.10;;
28166;SDS011;15455;53.376;-6.262;2023-08-01T16:05:09;0.47;;;0.10;;
28166;SDS011;15455;53.376;-6.262;2023-08-01T16:07:55;0.32;;;0.10;;
28166;SDS011;15455;53.376;-6.262;2023-08-01T16:10:41;1.15;;;0.20;;
28166;SDS011;15455;53.376;-6.262;2023-08-01T16:13:27;1.27;;;0.17;;
28166;SDS011;15455;53.376;-6.262;2023-08-01T16:16:13;0.77;;;0.20;;
28166;SDS011;15455;53.376;-6.262;2023-08-01T16:18:58;0.10;;;0.10;;
28166;SDS011;15455;53.376;-6.262;2023-08-01T16:21:44;0.10;;;0.10;;
28166;SDS011;15455;53.376;-6.262;2023-08-01T16:24:29;1.85;;;0.10;;
28166;SDS011;15455;53.376;-6.262;2023-08-01T16:27:15;0.20;;;0.20;;
28166;SDS011;15455;53.376;-6.262;2023-08-01T16:30:00;0.20;;;0.15;;
28166;SDS011;15455;53.376;-6.262;2023-08-01T16:32:45;1.95;;;0.20;;